Time;durP1;ratioP1;P1;durP2;ratioP2;P2;SDS_P1;SDS_P2;PMS_P1;PMS_P2;Temp;Humidity;BMP_temperature;BMP_pressure;BME280_temperature;BME280_humidity;BME280_pressure;Samples;Min_cycle;Max_cycle;Signal;HPM_P1;HPM_P2
2021/01/16 00:02:01;;;;;;;0.70;0.57;;;10.20;79.70;;;;;;5083663;28;20029;-42
2021/01/16 00:04:27;;;;;;;0.73;0.52;;;10.20;79.80;;;;;;5083261;28;20027;-43
2021/01/16 00:06:54;;;;;;;0.60;0.60;;;10.20;79.70;;;;;;5083324;28;20614;-42
2021/01/16 00:09:20;;;;;;;1.17;0.63;;;10.20;79.70;;;;;;5083290;28;20051;-42
2021/01/16 00:11:49;;;;;;;0.98;0.60;;;10.20;79.80;;;;;;5088293;28;20130;-42
2021/01/16 00:14:15;;;;;;;1.55;0.60;;;10.20;79.60;;;;;;5103312;28;20032;-42
2021/01/16 00:16:42;;;;;;;0.60;0.60;;;10.20;79.80;;;;;;5103851;28;20096;-42
2021/01/16 00:19:08;;;;;;;0.88;0.60;;;10.20;79.80;;;;;;5103479;28;20066;-42
2021/01/16 00:21:34;;;;;;;0.50;0.50;;;10.20;79.80;;;;;;5103587;28;20043;-42
2021/01/16 00:24:01;;;;;;;0.95;0.70;;;10.20;79.60;;;;;;5102137;28;20252;-42
2021/01/16 00:26:27;;;;;;;0.90;0.60;;;10.10;79.20;;;;;;5103444;28;20511;-42
2021/01/16 00:28:53;;;;;;;1.20;0.60;;;10.20;79.20;;;;;;5103738;28;20261;-42
2021/01/16 00:31:19;;;;;;;1.05;0.50;;;10.10;79.20;;;;;;5103442;28;20066;-42
2021/01/16 00:33:45;;;;;;;0.77;0.60;;;10.10;78.80;;;;;;5103133;28;20024;-42
2021/01/16 00:36:11;;;;;;;0.90;0.70;;;10.10;78.80;;;;;;5103494;28;20036;-42
2021/01/16 00:38:41;;;;;;;1.15;0.60;;;10.10;78.90;;;;;;5103596;28;20046;-42
2021/01/16 00:41:08;;;;;;;1.83;0.70;;;10.10;79.00;;;;;;5102839;28;20024;-42
2021/01/16 00:43:34;;;;;;;0.52;0.50;;;10.10;79.20;;;;;;5083926;28;20024;-42
2021/01/16 00:46:00;;;;;;;1.00;0.50;;;10.10;79.20;;;;;;5083116;28;20054;-42
2021/01/16 00:48:26;;;;;;;0.63;0.50;;;10.10;79.10;;;;;;5083079;28;20033;-41
2021/01/16 00:50:54;;;;;;;1.15;0.80;;;10.10;79.10;;;;;;5082896;28;20108;-42
2021/01/16 00:53:22;;;;;;;1.95;0.70;;;10.00;78.80;;;;;;5083021;28;20024;-42
2021/01/16 00:55:49;;;;;;;0.98;0.52;;;10.00;79.00;;;;;;5085760;28;20042;-42
2021/01/16 00:58:16;;;;;;;;;;;10.00;78.80;;;;;;5084002;28;20405;-42
2021/01/16 01:00:49;;;;;;;1.30;0.50;;;10.00;78.80;;;;;;5085222;28;19915;-42
2021/01/16 01:03:19;;;;;;;0.93;0.57;;;10.00;78.70;;;;;;5086515;28;20021;-42
2021/01/16 01:05:46;;;;;;;2.03;0.60;;;10.00;78.50;;;;;;5084954;28;20052;-42
2021/01/16 01:08:12;;;;;;;0.80;0.70;;;10.00;78.40;;;;;;5086573;28;20036;-42
2021/01/16 01:10:41;;;;;;;1.77;0.70;;;10.00;78.40;;;;;;5086772;28;20785;-42
2021/01/16 01:13:10;;;;;;;0.52;0.50;;;10.00;78.30;;;;;;5101954;28;20028;-42
2021/01/16 01:15:37;;;;;;;2.55;0.63;;;10.00;78.10;;;;;;5106330;28;20024;-42
2021/01/16 01:18:03;;;;;;;1.15;0.70;;;9.90;78.20;;;;;;5106651;28;20024;-42
2021/01/16 01:20:29;;;;;;;0.75;0.60;;;9.90;78.00;;;;;;5106613;28;20132;-42
2021/01/16 01:22:56;;;;;;;1.10;0.60;;;9.90;77.90;;;;;;5106540;28;20031;-42
2021/01/16 01:25:22;;;;;;;0.63;0.60;;;9.90;78.10;;;;;;5106298;28;20484;-42
2021/01/16 01:27:53;;;;;;;1.33;0.70;;;9.90;78.00;;;;;;5106312;28;20595;-42
2021/01/16 01:30:23;;;;;;;0.82;0.50;;;9.90;77.90;;;;;;5106162;28;20047;-42
2021/01/16 01:32:49;;;;;;;0.63;0.50;;;9.90;77.80;;;;;;5099744;28;20024;-42
2021/01/16 01:35:17;;;;;;;0.88;0.60;;;9.80;77.90;;;;;;5084208;28;20103;-42
2021/01/16 01:37:48;;;;;;;0.88;0.50;;;9.90;77.90;;;;;;5085934;28;20024;-42
2021/01/16 01:40:15;;;;;;;1.98;0.70;;;9.80;77.80;;;;;;5084967;28;20035;-42
2021/01/16 01:42:41;;;;;;;0.60;0.50;;;9.80;77.90;;;;;;5096472;28;20028;-42
2021/01/16 01:45:12;;;;;;;1.10;0.55;;;9.80;77.80;;;;;;5105825;28;20028;-42
2021/01/16 01:47:39;;;;;;;0.95;0.60;;;9.80;77.80;;;;;;5106001;28;20036;-42
2021/01/16 01:50:07;;;;;;;0.65;0.60;;;9.80;78.00;;;;;;5105903;28;20066;-42
2021/01/16 01:52:34;;;;;;;2.45;0.50;;;9.80;77.80;;;;;;5087219;28;20039;-42
2021/01/16 01:55:01;;;;;;;1.17;0.75;;;9.80;77.80;;;;;;5084204;28;20028;-43
2021/01/16 01:57:27;;;;;;;1.77;0.70;;;9.70;77.70;;;;;;5084130;28;20059;-42
2021/01/16 01:59:54;;;;;;;1.38;0.60;;;9.80;77.70;;;;;;5101154;28;20035;-42
2021/01/16 02:02:21;;;;;;;0.65;0.50;;;9.70;77.60;;;;;;5085284;28;20040;-42
2021/01/16 02:04:47;;;;;;;0.73;0.60;;;9.70;77.60;;;;;;5085214;28;20020;-42
2021/01/16 02:07:27;;;;;;;2.75;0.63;;;9.70;77.50;;;;;;5085365;28;20058;-42
2021/01/16 02:09:54;;;;;;;1.38;0.75;;;9.70;77.60;;;;;;5084142;28;20036;-42
2021/01/16 02:12:21;;;;;;;1.08;0.82;;;9.70;77.60;;;;;;5094836;28;20118;-42
2021/01/16 02:15:11;;;;;;;1.30;0.50;;;9.70;77.60;;;;;;5105147;28;20051;-42
2021/01/16 02:17:40;;;;;;;0.82;0.60;;;9.70;77.70;;;;;;5104451;28;20036;-42
2021/01/16 02:20:15;;;;;;;0.93;0.60;;;9.60;77.80;;;;;;5104141;28;20035;-42
2021/01/16 02:23:16;;;;;;;1.08;0.70;;;9.60;77.70;;;;;;5104083;28;20024;-42
2021/01/16 02:25:42;;;;;;;1.30;0.70;;;9.60;77.70;;;;;;5103777;28;20031;-42
2021/01/16 02:28:23;;;;;;;1.92;0.70;;;9.60;77.70;;;;;;5105289;28;20032;-42
2021/01/16 02:30:49;;;;;;;2.85;0.70;;;9.60;77.90;;;;;;5103566;28;20044;-42
2021/01/16 02:33:17;;;;;;;1.02;0.55;;;9.60;77.80;;;;;;5103952;28;20020;-42
2021/01/16 02:36:00;;;;;;;0.80;0.57;;;9.60;77.90;;;;;;5103374;28;20035;-42
2021/01/16 02:38:58;;;;;;;1.02;0.60;;;9.50;77.90;;;;;;5104898;28;20698;-42
2021/01/16 02:41:36;;;;;;;0.75;0.55;;;9.50;77.70;;;;;;5103189;28;20071;-42
2021/01/16 02:44:05;;;;;;;;;;;9.50;77.80;;;;;;5085065;28;20024;-42
2021/01/16 02:46:38;;;;;;;0.98;0.70;;;9.50;77.80;;;;;;5082864;28;19904;-42
2021/01/16 02:49:38;;;;;;;1.23;0.73;;;9.50;77.80;;;;;;5084664;28;20408;-42
2021/01/16 02:52:12;;;;;;;2.28;0.45;;;9.50;77.90;;;;;;5041688;28;20041;-42
2021/01/16 02:54:39;;;;;;;0.65;0.50;;;9.50;77.90;;;;;;5042023;28;20033;-42
2021/01/16 02:57:05;;;;;;;;;;;9.50;77.90;;;;;;5041953;28;20045;-42
2021/01/16 02:59:42;;;;;;;0.65;0.57;;;9.40;78.00;;;;;;5041562;28;19909;-42
2021/01/16 03:02:09;;;;;;;1.65;0.90;;;9.40;77.90;;;;;;5025198;28;20033;-42
2021/01/16 03:04:35;;;;;;;0.50;0.40;;;9.40;77.90;;;;;;5024921;28;20025;-42
2021/01/16 03:07:02;;;;;;;0.90;0.50;;;9.40;78.00;;;;;;5024964;28;20025;-42
2021/01/16 03:09:32;;;;;;;1.83;0.50;;;9.40;78.00;;;;;;5024741;28;20033;-42
2021/01/16 03:11:58;;;;;;;0.95;0.57;;;9.40;78.00;;;;;;5041309;28;20966;-42
2021/01/16 03:14:26;;;;;;;1.00;0.55;;;9.40;78.00;;;;;;5041466;28;20041;-41
2021/01/16 03:17:10;;;;;;;1.08;0.63;;;9.40;78.00;;;;;;5024896;28;20093;-42
2021/01/16 03:19:41;;;;;;;1.42;0.50;;;9.30;78.10;;;;;;5041509;28;20037;-41
2021/01/16 03:22:21;;;;;;;0.98;0.65;;;9.30;78.00;;;;;;5040899;28;20037;-41
2021/01/16 03:24:49;;;;;;;1.23;0.70;;;9.30;78.10;;;;;;5041506;28;20089;-42
2021/01/16 03:27:15;;;;;;;1.27;0.52;;;9.30;78.10;;;;;;5055133;28;20157;-42
2021/01/16 03:29:42;;;;;;;0.70;0.50;;;9.30;78.30;;;;;;5083548;28;20035;-44
2021/01/16 03:32:08;;;;;;;0.68;0.50;;;9.30;78.10;;;;;;5083800;28;20052;-42
2021/01/16 03:34:35;;;;;;;2.40;0.70;;;9.20;78.10;;;;;;5083768;28;20057;-42
2021/01/16 03:37:01;;;;;;;0.75;0.50;;;9.20;78.10;;;;;;5083514;28;20029;-42
2021/01/16 03:39:28;;;;;;;0.87;0.60;;;9.20;78.10;;;;;;5086033;28;20035;-42
2021/01/16 03:41:54;;;;;;;0.80;0.70;;;9.20;78.20;;;;;;5089799;28;20140;-43
2021/01/16 03:44:20;;;;;;;0.60;0.57;;;9.20;78.10;;;;;;5103740;28;20050;-42
2021/01/16 03:46:47;;;;;;;0.40;0.40;;;9.20;78.20;;;;;;5102203;28;20535;-42
2021/01/16 03:49:13;;;;;;;2.30;0.70;;;9.20;78.30;;;;;;5104059;28;20028;-42
2021/01/16 03:51:39;;;;;;;1.27;0.80;;;9.20;78.30;;;;;;5084917;28;20485;-42
2021/01/16 03:54:06;;;;;;;1.33;0.80;;;9.20;78.30;;;;;;5082331;28;20021;-42
2021/01/16 03:56:32;;;;;;;3.03;0.88;;;9.10;78.30;;;;;;5083280;28;20045;-42
2021/01/16 03:58:58;;;;;;;0.55;0.50;;;9.10;78.40;;;;;;5083428;28;20032;-42
2021/01/16 04:01:24;;;;;;;0.65;0.57;;;9.10;78.30;;;;;;5083670;28;20052;-42
2021/01/16 04:03:50;;;;;;;1.02;0.75;;;9.10;79.10;;;;;;5083560;28;20029;-42
2021/01/16 04:06:17;;;;;;;1.10;0.60;;;9.10;78.40;;;;;;5083151;28;20107;-42
2021/01/16 04:08:43;;;;;;;0.57;0.50;;;9.10;78.40;;;;;;5083546;28;20059;-42
2021/01/16 04:11:10;;;;;;;0.85;0.65;;;9.10;78.50;;;;;;5083724;28;20047;-41
2021/01/16 04:13:36;;;;;;;1.60;0.73;;;9.10;78.50;;;;;;5103151;28;20028;-42
2021/01/16 04:16:03;;;;;;;2.27;0.80;;;9.10;78.70;;;;;;5102282;28;20032;-42
2021/01/16 04:18:29;;;;;;;0.75;0.50;;;9.00;78.40;;;;;;5103284;28;20016;-42
2021/01/16 04:20:55;;;;;;;0.65;0.65;;;9.00;78.50;;;;;;5103375;28;20545;-42
2021/01/16 04:23:21;;;;;;;0.57;0.57;;;9.00;78.50;;;;;;5102152;28;20071;-42
2021/01/16 04:25:48;;;;;;;1.73;0.70;;;9.00;78.50;;;;;;5102330;28;20691;-42
2021/01/16 04:28:14;;;;;;;0.77;0.60;;;9.00;78.60;;;;;;5103296;28;20028;-42
2021/01/16 04:30:40;;;;;;;0.90;0.57;;;9.00;78.60;;;;;;5103360;28;20126;-42
2021/01/16 04:33:09;;;;;;;0.60;0.60;;;9.00;78.60;;;;;;5103966;28;20069;-42
2021/01/16 04:35:36;;;;;;;1.13;0.75;;;8.90;78.50;;;;;;5107508;28;20028;-42
2021/01/16 04:38:02;;;;;;;1.27;0.77;;;8.90;78.50;;;;;;5107296;28;20020;-42
2021/01/16 04:40:29;;;;;;;0.60;0.60;;;8.90;78.60;;;;;;5106561;28;20032;-42
2021/01/16 04:42:55;;;;;;;0.65;0.50;;;8.90;78.60;;;;;;5093277;28;20148;-42
2021/01/16 04:45:22;;;;;;;1.20;0.70;;;8.90;78.60;;;;;;5085627;28;20096;-42
2021/01/16 04:47:49;;;;;;;2.20;0.70;;;8.90;78.70;;;;;;5085335;28;20401;-42
2021/01/16 04:50:19;;;;;;;0.60;0.60;;;8.90;78.60;;;;;;5085424;28;20291;-41
2021/01/16 04:52:46;;;;;;;1.33;0.80;;;8.90;78.70;;;;;;5086766;28;20028;-42
2021/01/16 04:55:13;;;;;;;2.78;0.60;;;8.80;78.70;;;;;;5086646;28;20029;-42
2021/01/16 04:57:40;;;;;;;0.95;0.70;;;8.80;78.60;;;;;;5086252;28;20081;-41
2021/01/16 05:00:12;;;;;;;0.70;0.70;;;8.80;78.70;;;;;;5086343;28;20032;-41
2021/01/16 05:02:41;;;;;;;0.70;0.52;;;8.80;78.60;;;;;;5086482;28;20020;-43
2021/01/16 05:05:11;;;;;;;0.98;0.52;;;8.80;79.30;;;;;;5086542;28;20024;-42
2021/01/16 05:07:37;;;;;;;0.68;0.68;;;8.80;78.60;;;;;;5089397;28;20017;-42
2021/01/16 05:10:05;;;;;;;1.02;0.80;;;8.80;79.40;;;;;;5086935;28;20048;-42
2021/01/16 05:12:31;;;;;;;1.23;0.80;;;8.80;78.60;;;;;;5095650;28;20075;-42
2021/01/16 05:15:08;;;;;;;0.65;0.60;;;8.70;78.60;;;;;;5106531;28;20088;-42
2021/01/16 05:17:36;;;;;;;0.75;0.75;;;8.70;78.50;;;;;;5106421;28;20039;-41
2021/01/16 05:20:03;;;;;;;1.75;0.73;;;8.70;78.60;;;;;;5106486;28;20020;-42
2021/01/16 05:22:29;;;;;;;0.80;0.70;;;8.70;78.70;;;;;;5106434;28;20035;-41
2021/01/16 05:25:01;;;;;;;0.70;0.68;;;8.70;78.70;;;;;;5106544;28;20028;-41
2021/01/16 05:27:34;;;;;;;0.60;0.60;;;8.70;78.60;;;;;;5106090;28;20032;-42
2021/01/16 05:30:05;;;;;;;0.95;0.70;;;8.70;78.70;;;;;;5105005;28;20595;-42
2021/01/16 05:32:31;;;;;;;0.93;0.60;;;8.60;78.60;;;;;;5106298;28;20027;-42
2021/01/16 05:35:19;;;;;;;2.67;0.70;;;8.70;78.80;;;;;;5106186;28;20113;-43
2021/01/16 05:37:46;;;;;;;2.55;0.80;;;8.60;78.70;;;;;;5106003;28;20035;-41
2021/01/16 05:40:12;;;;;;;;;;;8.60;78.70;;;;;;5105961;28;20024;-42
2021/01/16 05:42:39;;;;;;;1.30;0.70;;;8.60;78.70;;;;;;5094567;28;19909;-42
2021/01/16 05:45:07;;;;;;;0.77;0.70;;;8.60;78.80;;;;;;5086976;28;20020;-41
2021/01/16 05:47:34;;;;;;;0.77;0.63;;;8.60;78.80;;;;;;5085508;28;20044;-42
2021/01/16 05:50:01;;;;;;;1.45;0.90;;;8.60;78.80;;;;;;5085524;28;20036;-42
2021/01/16 05:52:27;;;;;;;1.83;0.63;;;8.60;78.80;;;;;;5085592;28;20037;-42
2021/01/16 05:54:58;;;;;;;3.08;0.70;;;8.50;78.70;;;;;;5084164;28;20269;-41
2021/01/16 05:57:25;;;;;;;1.10;0.98;;;8.50;78.70;;;;;;5085435;28;20045;-41
2021/01/16 05:59:59;;;;;;;1.57;0.63;;;8.50;78.70;;;;;;5085216;28;20031;-42
2021/01/16 06:02:32;;;;;;;1.00;0.80;;;8.50;78.70;;;;;;5084143;28;20249;-42
2021/01/16 06:04:58;;;;;;;1.02;0.70;;;8.50;78.70;;;;;;5085244;28;20024;-42
2021/01/16 06:07:26;;;;;;;1.67;0.73;;;8.50;78.80;;;;;;5085247;28;20055;-42
2021/01/16 06:09:52;;;;;;;;;;;8.50;78.80;;;;;;5085331;28;20020;-41
2021/01/16 06:12:19;;;;;;;2.40;0.63;;;8.40;78.70;;;;;;5094488;28;19947;-42
2021/01/16 06:14:46;;;;;;;0.63;0.60;;;8.40;78.80;;;;;;5104301;28;20110;-42
2021/01/16 06:17:13;;;;;;;0.70;0.60;;;8.40;78.90;;;;;;5104016;28;20040;-42
2021/01/16 06:19:46;;;;;;;1.00;0.60;;;8.40;78.90;;;;;;5105085;28;20032;-42
2021/01/16 06:22:13;;;;;;;2.05;0.80;;;8.40;79.00;;;;;;5104123;28;20028;-41
2021/01/16 06:24:39;;;;;;;1.45;0.80;;;8.40;78.90;;;;;;5105379;28;20418;-42
2021/01/16 06:27:06;;;;;;;0.57;0.52;;;8.40;78.90;;;;;;5105168;28;20046;-42
2021/01/16 06:29:36;;;;;;;0.75;0.63;;;8.40;78.90;;;;;;5103583;28;20047;-42
2021/01/16 06:32:09;;;;;;;1.13;0.75;;;8.40;78.90;;;;;;5103656;28;20059;-42
2021/01/16 06:34:39;;;;;;;4.35;0.70;;;8.30;78.80;;;;;;5105218;28;20024;-41
2021/01/16 06:37:10;;;;;;;0.93;0.57;;;8.30;78.90;;;;;;5104955;28;20043;-42
2021/01/16 06:39:41;;;;;;;1.70;0.73;;;8.30;79.00;;;;;;5104855;28;20020;-41
2021/01/16 06:42:09;;;;;;;0.75;0.70;;;8.30;79.00;;;;;;5095689;28;20393;-42
2021/01/16 06:44:35;;;;;;;0.50;0.50;;;8.30;79.00;;;;;;5084623;28;20062;-41
2021/01/16 06:47:02;;;;;;;1.73;0.85;;;8.30;79.00;;;;;;5083114;28;20054;-41
2021/01/16 06:49:29;;;;;;;2.38;0.70;;;8.30;79.00;;;;;;5084084;28;20021;-41
2021/01/16 06:51:59;;;;;;;2.08;0.73;;;8.30;79.10;;;;;;5084520;28;20051;-41
2021/01/16 06:54:27;;;;;;;1.67;0.68;;;8.20;79.00;;;;;;5083194;28;20100;-41
2021/01/16 06:57:13;;;;;;;0.98;0.65;;;8.20;79.00;;;;;;5083678;28;20052;-41
2021/01/16 06:59:43;;;;;;;0.68;0.50;;;8.20;79.10;;;;;;5084101;28;20033;-41
2021/01/16 07:02:28;;;;;;;1.35;1.02;;;8.20;79.20;;;;;;5086639;28;20044;-41
2021/01/16 07:05:16;;;;;;;0.98;0.70;;;8.20;79.10;;;;;;5084243;28;20052;-42
2021/01/16 07:07:45;;;;;;;0.80;0.70;;;8.20;79.20;;;;;;5083939;28;20095;-41
2021/01/16 07:10:12;;;;;;;0.80;0.70;;;8.20;79.20;;;;;;5084360;28;20039;-42
2021/01/16 07:12:41;;;;;;;0.88;0.60;;;8.20;79.20;;;;;;5095713;28;20536;-41
2021/01/16 07:15:08;;;;;;;0.60;0.60;;;8.10;79.10;;;;;;5104349;28;20036;-41
2021/01/16 07:17:36;;;;;;;0.77;0.70;;;8.10;79.20;;;;;;5088950;28;20047;-41
2021/01/16 07:20:02;;;;;;;1.60;0.75;;;8.10;79.20;;;;;;5083786;28;20052;-41
2021/01/16 07:22:30;;;;;;;1.00;0.70;;;8.10;79.20;;;;;;5083821;28;20031;-41
2021/01/16 07:24:56;;;;;;;0.80;0.70;;;8.10;79.20;;;;;;5082625;28;20051;-41
2021/01/16 07:27:24;;;;;;;1.73;0.70;;;8.10;79.30;;;;;;5083846;28;20083;-41
2021/01/16 07:29:50;;;;;;;0.75;0.75;;;8.10;79.30;;;;;;5082221;28;20493;-41
2021/01/16 07:32:16;;;;;;;1.15;0.50;;;8.10;79.20;;;;;;5082508;28;20040;-41
2021/01/16 07:34:47;;;;;;;1.25;0.80;;;8.10;79.30;;;;;;5082412;28;20046;-42
2021/01/16 07:37:14;;;;;;;0.77;0.77;;;8.10;79.40;;;;;;5083649;28;20036;-41
2021/01/16 07:39:42;;;;;;;2.13;0.68;;;8.10;79.30;;;;;;5085995;28;20077;-41
2021/01/16 07:42:12;;;;;;;1.10;0.65;;;8.00;79.30;;;;;;5095777;28;20409;-41
2021/01/16 07:44:42;;;;;;;1.05;0.60;;;8.00;79.30;;;;;;5082518;28;20041;-41
2021/01/16 07:47:19;;;;;;;0.82;0.70;;;8.00;79.40;;;;;;5083627;28;20040;-41
2021/01/16 07:49:57;;;;;;;1.17;0.70;;;8.00;79.40;;;;;;5083254;28;20059;-41
2021/01/16 07:52:24;;;;;;;0.70;0.70;;;8.00;79.40;;;;;;5082241;28;20054;-41
2021/01/16 07:55:03;;;;;;;1.67;0.60;;;8.00;79.40;;;;;;5083751;28;20113;-41
2021/01/16 07:57:30;;;;;;;1.45;0.75;;;7.90;79.40;;;;;;5082364;28;20053;-41
2021/01/16 07:59:56;;;;;;;1.05;0.63;;;7.90;79.40;;;;;;5082171;28;20035;-41
2021/01/16 08:02:26;;;;;;;0.50;0.50;;;7.90;79.40;;;;;;5082210;28;20032;-41
2021/01/16 08:05:25;;;;;;;1.13;0.65;;;7.90;79.50;;;;;;5083515;28;20828;-41
2021/01/16 08:08:03;;;;;;;2.13;0.70;;;7.90;79.40;;;;;;5082442;28;20050;-41
2021/01/16 08:10:29;;;;;;;1.35;0.90;;;7.90;79.50;;;;;;5087502;28;20029;-41
2021/01/16 08:12:57;;;;;;;0.90;0.70;;;7.90;79.50;;;;;;5100311;28;20016;-41
2021/01/16 08:15:30;;;;;;;0.93;0.70;;;7.90;79.50;;;;;;5107867;28;20109;-41
2021/01/16 08:17:59;;;;;;;0.98;0.80;;;7.80;79.40;;;;;;5106335;28;20028;-41
2021/01/16 08:20:29;;;;;;;0.73;0.70;;;7.80;79.40;;;;;;5107341;28;20024;-41
2021/01/16 08:22:56;;;;;;;0.75;0.73;;;7.80;79.50;;;;;;5107571;28;20032;-41
2021/01/16 08:25:27;;;;;;;1.60;0.90;;;7.80;79.60;;;;;;5107831;28;20123;-41
2021/01/16 08:27:58;;;;;;;1.00;0.77;;;7.80;79.50;;;;;;5096674;28;20088;-41
2021/01/16 08:30:28;;;;;;;1.40;0.73;;;7.80;79.60;;;;;;5086831;28;20048;-41
2021/01/16 08:33:01;;;;;;;0.73;0.63;;;7.80;79.60;;;;;;5086967;28;20032;-41
2021/01/16 08:35:28;;;;;;;1.00;0.63;;;7.80;79.60;;;;;;5086975;28;20032;-41
2021/01/16 08:38:17;;;;;;;0.80;0.70;;;7.80;79.60;;;;;;5087030;28;20024;-41
2021/01/16 08:40:50;;;;;;;1.52;0.70;;;7.70;79.60;;;;;;5087179;28;20028;-41
2021/01/16 08:43:33;;;;;;;0.95;0.70;;;7.70;79.60;;;;;;5103945;28;20027;-41
2021/01/16 08:46:13;;;;;;;0.88;0.68;;;7.70;79.70;;;;;;5097838;28;20027;-41
2021/01/16 08:48:40;;;;;;;0.70;0.70;;;7.70;79.60;;;;;;5085679;28;20027;-42
2021/01/16 08:51:26;;;;;;;0.93;0.70;;;7.70;79.70;;;;;;5086193;28;20044;-41
2021/01/16 08:54:11;;;;;;;1.00;0.80;;;7.70;79.70;;;;;;5086740;28;20024;-41
2021/01/16 08:56:37;;;;;;;1.05;0.80;;;7.70;80.40;;;;;;5086237;28;20104;-41
2021/01/16 08:59:33;;;;;;;1.17;0.80;;;7.70;79.70;;;;;;5086731;28;20073;-41
2021/01/16 09:02:11;;;;;;;0.60;0.60;;;7.60;79.60;;;;;;5084265;28;20415;-41
2021/01/16 09:04:41;;;;;;;1.42;0.60;;;7.60;79.70;;;;;;5086642;28;20031;-43
2021/01/16 09:07:21;;;;;;;1.52;0.68;;;7.60;79.80;;;;;;5086234;28;20021;-41
2021/01/16 09:09:57;;;;;;;1.73;0.80;;;7.60;79.80;;;;;;5086331;28;20029;-41
2021/01/16 09:12:34;;;;;;;0.70;0.60;;;7.60;79.80;;;;;;5096087;28;20118;-41
2021/01/16 09:15:24;;;;;;;0.82;0.70;;;7.60;79.80;;;;;;5085057;28;20396;-41
2021/01/16 09:18:02;;;;;;;1.77;0.65;;;7.60;79.90;;;;;;5080717;28;20037;-41
2021/01/16 09:20:29;;;;;;;1.30;0.82;;;7.60;79.80;;;;;;5085423;28;20043;-41
2021/01/16 09:22:55;;;;;;;0.77;0.70;;;7.60;79.90;;;;;;5086959;28;20470;-41
2021/01/16 09:25:22;;;;;;;0.65;0.65;;;7.50;79.80;;;;;;5104456;28;20035;-41
2021/01/16 09:27:48;;;;;;;0.77;0.77;;;7.50;79.80;;;;;;5105232;28;20028;-41
2021/01/16 09:30:35;;;;;;;0.70;0.70;;;7.50;79.90;;;;;;5106442;28;20028;-41
2021/01/16 09:33:19;;;;;;;0.77;0.75;;;7.50;79.90;;;;;;5104356;28;20052;-41
2021/01/16 09:35:45;;;;;;;0.73;0.60;;;7.50;79.90;;;;;;5102272;28;20027;-41
2021/01/16 09:38:18;;;;;;;0.82;0.65;;;7.50;79.90;;;;;;5106218;28;20036;-41
2021/01/16 09:40:45;;;;;;;0.63;0.63;;;7.50;80.00;;;;;;5105399;28;20058;-41
2021/01/16 09:43:17;;;;;;;1.27;0.65;;;7.50;80.00;;;;;;5089927;28;20020;-41
2021/01/16 09:45:57;;;;;;;1.27;0.80;;;7.50;80.00;;;;;;5085774;28;20040;-41
2021/01/16 09:48:46;;;;;;;0.93;0.60;;;7.50;80.00;;;;;;5085812;28;20051;-41
2021/01/16 09:51:13;;;;;;;0.85;0.70;;;7.40;80.00;;;;;;5085364;28;20115;-41
2021/01/16 09:53:39;;;;;;;0.85;0.68;;;7.40;80.00;;;;;;5085398;28;20036;-41
2021/01/16 09:56:06;;;;;;;1.08;0.70;;;7.40;80.00;;;;;;5085621;28;20028;-41
2021/01/16 09:58:39;;;;;;;0.60;0.60;;;7.40;80.00;;;;;;5085443;28;20052;-41
2021/01/16 10:01:22;;;;;;;0.98;0.60;;;7.40;80.00;;;;;;5085520;28;20051;-41
2021/01/16 10:03:49;;;;;;;1.17;0.68;;;7.40;80.00;;;;;;5085290;28;20025;-48
2021/01/16 10:06:18;;;;;;;0.50;0.50;;;7.40;80.10;;;;;;5077930;28;20025;-41
2021/01/16 10:08:48;;;;;;;0.90;0.70;;;7.40;80.10;;;;;;5085267;28;20032;-41
2021/01/16 10:11:35;;;;;;;0.57;0.55;;;7.40;80.10;;;;;;5085881;28;20041;-41
2021/01/16 10:14:34;;;;;;;1.00;0.70;;;7.30;80.00;;;;;;5064864;28;20051;-40
2021/01/16 10:17:00;;;;;;;1.55;0.70;;;7.30;80.10;;;;;;5089679;28;20048;-41
2021/01/16 10:19:26;;;;;;;1.73;0.70;;;7.30;80.00;;;;;;5063650;28;20476;-41
2021/01/16 10:21:56;;;;;;;0.80;0.80;;;7.30;80.10;;;;;;5066827;28;20028;-41
2021/01/16 10:24:23;;;;;;;1.58;0.80;;;7.30;80.10;;;;;;5083476;28;20020;-41
2021/01/16 10:26:51;;;;;;;2.28;0.70;;;7.30;80.10;;;;;;5085121;28;20081;-41
2021/01/16 10:29:20;;;;;;;;;;;7.20;80.10;;;;;;5085564;28;20440;-41
2021/01/16 10:31:46;;;;;;;0.88;0.70;;;7.20;80.10;;;;;;5083680;28;20003;-41
2021/01/16 10:34:13;;;;;;;0.60;0.60;;;7.30;80.20;;;;;;5083359;28;20500;-41
2021/01/16 10:36:40;;;;;;;0.45;0.45;;;7.20;80.10;;;;;;5084632;28;20067;-40
2021/01/16 10:39:11;;;;;;;2.92;0.75;;;7.20;80.20;;;;;;5084690;28;20028;-40
2021/01/16 10:41:38;;;;;;;3.53;0.90;;;7.20;80.20;;;;;;5093773;28;20028;-41
2021/01/16 10:44:06;;;;;;;2.05;0.70;;;7.20;80.30;;;;;;5084317;28;20056;-41
2021/01/16 10:46:41;;;;;;;1.23;0.98;;;7.20;80.30;;;;;;5084440;28;20588;-40
2021/01/16 10:49:12;;;;;;;1.05;0.70;;;7.20;80.30;;;;;;5084677;28;20464;-41
2021/01/16 10:51:40;;;;;;;1.08;0.77;;;7.20;80.30;;;;;;5084056;28;20043;-41
2021/01/16 10:54:07;;;;;;;0.75;0.70;;;7.20;80.30;;;;;;5084094;28;20017;-41
2021/01/16 10:56:34;;;;;;;0.70;0.70;;;7.10;80.20;;;;;;5084351;28;20084;-41
2021/01/16 10:59:11;;;;;;;1.00;0.70;;;7.10;80.30;;;;;;5082929;28;20115;-41
2021/01/16 11:01:50;;;;;;;0.80;0.70;;;7.10;80.30;;;;;;5084219;28;20025;-41
2021/01/16 11:04:26;;;;;;;1.75;0.80;;;7.10;80.30;;;;;;5084097;28;20028;-41
2021/01/16 11:06:59;;;;;;;1.17;0.93;;;7.10;80.20;;;;;;5084082;28;20013;-41
2021/01/16 11:09:40;;;;;;;0.80;0.80;;;7.10;80.30;;;;;;5085448;28;20025;-41
2021/01/16 11:12:07;;;;;;;0.75;0.70;;;7.10;80.40;;;;;;5091803;28;20044;-41
2021/01/16 11:14:38;;;;;;;1.38;0.90;;;7.00;80.30;;;;;;5104072;28;20115;-41
2021/01/16 11:17:04;;;;;;;0.60;0.60;;;7.00;80.30;;;;;;5104105;28;20035;-41
2021/01/16 11:19:39;;;;;;;0.63;0.60;;;7.00;80.30;;;;;;5104350;28;20055;-40
2021/01/16 11:22:09;;;;;;;1.25;0.70;;;7.00;80.30;;;;;;5098793;28;20037;-40
2021/01/16 11:24:53;;;;;;;0.90;0.75;;;7.00;80.30;;;;;;5083719;28;20021;-41
2021/01/16 11:27:30;;;;;;;0.70;0.70;;;7.00;80.30;;;;;;5084018;28;20089;-41
2021/01/16 11:30:07;;;;;;;2.00;0.82;;;7.00;80.30;;;;;;5083783;28;20028;-41
2021/01/16 11:32:37;;;;;;;1.10;0.70;;;7.00;80.30;;;;;;5085176;28;20036;-41
2021/01/16 11:35:08;;;;;;;0.82;0.60;;;6.90;80.30;;;;;;5085060;28;20037;-41
2021/01/16 11:37:49;;;;;;;0.70;0.60;;;7.00;80.40;;;;;;5083578;28;20496;-41
2021/01/16 11:40:26;;;;;;;0.88;0.60;;;6.90;80.40;;;;;;5084286;28;20017;-41
2021/01/16 11:42:57;;;;;;;1.02;0.77;;;6.90;80.40;;;;;;5097109;28;20126;-41
2021/01/16 11:45:26;;;;;;;0.88;0.77;;;6.90;80.40;;;;;;5103761;28;20028;-41
2021/01/16 11:47:56;;;;;;;1.35;0.80;;;6.90;80.40;;;;;;5102433;28;20020;-41
2021/01/16 11:50:24;;;;;;;0.70;0.70;;;6.90;80.40;;;;;;5102661;28;20032;-41
2021/01/16 11:52:50;;;;;;;0.93;0.55;;;6.90;80.40;;;;;;5094175;28;20025;-41
2021/01/16 11:55:17;;;;;;;0.60;0.52;;;6.90;80.40;;;;;;5083394;28;20051;-41
2021/01/16 11:57:46;;;;;;;1.00;0.90;;;6.90;80.40;;;;;;5083613;28;20079;-41
2021/01/16 12:00:17;;;;;;;1.83;0.77;;;6.90;80.40;;;;;;5083632;28;20032;-41
2021/01/16 12:02:50;;;;;;;0.95;0.82;;;6.90;80.50;;;;;;5083268;28;20021;-40
2021/01/16 12:05:17;;;;;;;1.45;0.70;;;6.80;80.50;;;;;;5081927;28;20029;-40
2021/01/16 12:08:02;;;;;;;0.95;0.70;;;6.80;80.50;;;;;;5082070;28;20035;-41
2021/01/16 12:10:28;;;;;;;0.90;0.70;;;6.80;80.50;;;;;;5082489;28;20040;-41
2021/01/16 12:12:55;;;;;;;0.70;0.70;;;6.80;80.50;;;;;;5095937;28;20481;-41
2021/01/16 12:15:22;;;;;;;1.77;0.90;;;6.80;80.50;;;;;;5103685;28;20060;-41
2021/01/16 12:17:49;;;;;;;2.45;0.80;;;6.80;80.50;;;;;;5103414;28;20036;-40
2021/01/16 12:20:16;;;;;;;;;;;6.80;80.50;;;;;;5102775;28;20024;-41
2021/01/16 12:22:49;;;;;;;0.95;0.80;;;6.80;80.60;;;;;;5092993;28;19975;-41
2021/01/16 12:25:16;;;;;;;1.95;0.80;;;6.80;80.60;;;;;;5083114;28;20031;-41
2021/01/16 12:27:52;;;;;;;1.40;0.80;;;6.80;80.60;;;;;;5083366;28;20027;-41
2021/01/16 12:30:19;;;;;;;0.95;0.73;;;6.70;80.50;;;;;;5083210;28;20096;-41
2021/01/16 12:32:45;;;;;;;1.15;1.00;;;6.70;80.50;;;;;;5083061;28;20081;-41
2021/01/16 12:35:12;;;;;;;1.10;0.65;;;6.70;80.60;;;;;;5082995;28;20020;-40
2021/01/16 12:37:38;;;;;;;1.40;0.73;;;6.70;80.60;;;;;;5081684;28;20029;-41
2021/01/16 12:40:12;;;;;;;0.73;0.73;;;6.70;80.60;;;;;;5083632;28;20088;-42
2021/01/16 12:42:39;;;;;;;0.73;0.68;;;6.70;80.70;;;;;;5091914;28;20036;-41
2021/01/16 12:45:15;;;;;;;0.88;0.75;;;6.70;80.60;;;;;;5081613;28;20028;-41
2021/01/16 12:47:43;;;;;;;1.05;0.75;;;6.70;80.70;;;;;;5082982;28;20025;-41
2021/01/16 12:50:09;;;;;;;2.00;0.70;;;6.70;80.70;;;;;;5082879;28;20391;-40
2021/01/16 12:52:35;;;;;;;0.80;0.70;;;6.60;80.60;;;;;;5082839;28;20195;-40
2021/01/16 12:55:06;;;;;;;1.30;0.85;;;6.60;80.60;;;;;;5084749;28;20028;-40
2021/01/16 12:57:43;;;;;;;1.73;0.60;;;6.60;80.60;;;;;;5086583;28;20048;-41
2021/01/16 13:00:11;;;;;;;0.90;0.90;;;6.60;80.60;;;;;;5086626;28;20032;-41
2021/01/16 13:02:38;;;;;;;1.30;0.82;;;6.60;80.70;;;;;;5104023;28;20091;-41
2021/01/16 13:05:06;;;;;;;0.82;0.82;;;6.60;80.70;;;;;;5105059;28;20040;-41
2021/01/16 13:07:32;;;;;;;1.05;0.93;;;6.60;80.70;;;;;;5106853;28;20362;-40
2021/01/16 13:10:07;;;;;;;1.05;0.85;;;6.60;80.70;;;;;;5106122;28;20036;-40
2021/01/16 13:12:43;;;;;;;0.98;0.70;;;6.60;80.70;;;;;;5087659;28;20139;-40
2021/01/16 13:15:10;;;;;;;1.45;0.90;;;6.50;80.70;;;;;;5106444;28;20103;-41